Aviation Digital Data Service (ADDS)

Output produced by METARs form (0429 UTC 26 May 2018)
found at http://www.aviationweather.gov/adds/metars/
 
TAF MPPA 252200Z 2600/2706 18006KT 7000 TSRA FEW013CB SCT100 
     PROB30 
     TEMPO 2604/2608 20006KT 5000 RA SCT015
       
TAF MPDA 252200Z 2600/2612 18006KT 8000 TSVCSH FEW015CB 
     PROB30 
     TEMPO 2603/2606 7000 TSRA FEW013CB SCT080
       
TAF MPMG 252200Z 2600/2612 16006KT 9000 VCSH FEW015CB SCT080 
     PROB30 
     TEMPO 2604/2608 18006KT 7000 TSRA FEW013CB
       
TAF MPTO 260400Z 2606/2712 00000KT 9999 SCT018 
     BECMG 2610/2614 02006KT 9000 SCT016 
     PROB30 
     TEMPO 2615/2618 18008KT 7000 RA FEW015CB SCT100